Time;durP1;ratioP1;P1;durP2;ratioP2;P2;SDS_P1;SDS_P2;PMS_P1;PMS_P2;Temp;Humidity;BMP_temperature;BMP_pressure;BME280_temperature;BME280_humidity;BME280_pressure;Samples;Min_cycle;Max_cycle;Signal;HPM_P1;HPM_P2
2022/03/28 00:01:18;;;;;;;0.50;0.40;;;;;;;-4.47;44.51;99048.28;5021785;28;20098;-56
2022/03/28 00:03:44;;;;;;;1.38;0.60;;;;;;;-4.50;44.26;99053.31;5032641;28;20037;-54
2022/03/28 00:06:10;;;;;;;1.55;0.75;;;;;;;-4.49;44.28;99052.47;5032593;28;20063;-57
2022/03/28 00:08:37;;;;;;;1.40;0.63;;;;;;;-4.60;44.66;99038.78;5030747;28;20033;-55
2022/03/28 00:11:03;;;;;;;1.70;0.80;;;;;;;-4.55;44.99;99045.63;5031472;28;20041;-52
2022/03/28 00:13:29;;;;;;;1.25;0.70;;;;;;;-4.50;45.05;99053.31;5029843;28;20521;-56
2022/03/28 00:15:55;;;;;;;0.75;0.32;;;;;;;-4.52;44.80;99039.75;5023170;28;20077;-52
2022/03/28 00:18:21;;;;;;;1.05;0.60;;;;;;;-4.61;44.49;99043.00;5031802;28;20045;-53
2022/03/28 00:20:49;;;;;;;1.33;0.45;;;;;;;-4.56;44.20;99056.63;5014818;28;20076;-57
2022/03/28 00:23:15;;;;;;;1.25;0.50;;;;;;;-4.56;44.41;99056.63;5031247;28;20416;-57
2022/03/28 00:25:42;;;;;;;2.03;0.70;;;;;;;-4.56;44.36;99051.53;5028877;28;20060;-55
2022/03/28 00:28:08;;;;;;;0.47;0.30;;;;;;;-4.58;44.96;99040.50;5029370;28;20041;-57
2022/03/28 00:30:34;;;;;;;4.43;0.80;;;;;;;-4.63;44.14;99044.66;5030022;28;20045;-56
2022/03/28 00:33:00;;;;;;;1.27;0.60;;;;;;;-4.63;43.93;99047.19;5023213;28;20038;-57
2022/03/28 00:35:26;;;;;;;1.55;0.30;;;;;;;-4.63;43.96;99048.88;5028588;28;20065;-56
2022/03/28 00:37:53;;;;;;;2.05;0.50;;;;;;;-4.62;43.98;99048.06;5037108;28;20041;-56
2022/03/28 00:40:20;;;;;;;1.38;0.63;;;;;;;-4.63;44.34;99039.59;5047523;28;20037;-57
2022/03/28 00:42:48;;;;;;;1.13;0.30;;;;;;;-4.63;44.15;99037.06;5030419;28;20052;-56
2022/03/28 00:45:14;;;;;;;2.20;0.70;;;;;;;-4.73;44.44;99022.53;5031008;28;20038;-56
2022/03/28 00:47:41;;;;;;;0.52;0.50;;;;;;;-4.68;44.19;99030.22;5032347;28;20080;-56
2022/03/28 00:50:07;;;;;;;1.25;0.50;;;;;;;-4.70;44.36;99033.56;5032139;28;20043;-58
2022/03/28 00:52:34;;;;;;;1.45;0.35;;;;;;;-4.74;43.90;99031.81;5031179;28;20064;-56
2022/03/28 00:55:00;;;;;;;1.20;0.40;;;;;;;-4.78;43.51;99034.28;5031791;28;20524;-56
2022/03/28 00:57:27;;;;;;;1.92;0.70;;;;;;;-4.83;43.92;99030.81;5031372;28;20049;-53
2022/03/28 00:59:53;;;;;;;0.93;0.43;;;;;;;-4.85;43.76;99019.78;5024638;28;20064;-54
2022/03/28 01:02:18;;;;;;;1.10;0.60;;;;;;;-4.83;43.65;99028.28;5031383;28;20095;-55
2022/03/28 01:04:44;;;;;;;1.33;0.60;;;;;;;-4.84;43.85;99026.56;5031412;28;20026;-54
2022/03/28 01:07:10;;;;;;;1.10;0.55;;;;;;;-4.84;43.77;99032.50;5021199;28;20453;-55
2022/03/28 01:09:36;;;;;;;0.73;0.60;;;;;;;-4.92;43.33;99023.91;5045136;28;20535;-55
2022/03/28 01:12:02;;;;;;;1.40;0.60;;;;;;;-4.92;43.52;99028.16;5025318;28;20073;-57
2022/03/28 01:14:28;;;;;;;0.40;0.30;;;;;;;-5.02;43.68;99006.84;5022680;28;20136;-56
2022/03/28 01:19:38;;;;;;;0.70;0.40;;;;;;;-5.01;43.30;99025.44;5015149;28;20100;-55
2022/03/28 01:22:04;;;;;;;0.63;0.40;;;;;;;-5.05;43.56;99034.69;5010837;28;20053;-56
2022/03/28 01:24:31;;;;;;;0.52;0.38;;;;;;;-5.04;43.53;99027.94;5027066;28;20041;-56
2022/03/28 01:26:57;;;;;;;3.22;0.50;;;;;;;-5.21;43.34;99013.28;5028294;28;20072;-56
2022/03/28 01:29:23;;;;;;;1.05;0.35;;;;;;;-5.09;43.35;99034.59;5018177;28;20525;-57
2022/03/28 01:31:49;;;;;;;0.82;0.40;;;;;;;-5.09;43.51;99037.13;5024115;28;20128;-58
2022/03/28 01:34:21;;;;;;;2.20;0.52;;;;;;;-5.08;43.48;99032.09;5025200;28;20038;-55
2022/03/28 01:36:49;;;;;;;2.97;0.60;;;;;;;-5.04;43.43;99017.78;5027369;28;20099;-58
2022/03/28 01:39:15;;;;;;;0.35;0.30;;;;;;;-5.13;43.66;98999.06;5023788;28;20255;-58
2022/03/28 01:41:41;;;;;;;0.40;0.40;;;;;;;-5.06;43.12;99005.09;5028580;28;20077;-56
2022/03/28 01:44:07;;;;;;;0.65;0.50;;;;;;;-5.00;43.95;99007.72;5027220;28;20040;-56
2022/03/28 01:46:47;;;;;;;0.65;0.30;;;;;;;-4.93;43.81;99007.00;5027172;28;20136;-56
2022/03/28 01:49:17;;;;;;;1.88;0.57;;;;;;;-4.94;43.76;98999.38;5022632;28;20139;-55
2022/03/28 01:51:43;;;;;;;1.13;0.57;;;;;;;-4.89;43.62;99008.75;5013400;28;20128;-54
2022/03/28 01:54:09;;;;;;;1.55;0.60;;;;;;;-4.88;43.92;98995.25;5030247;28;20565;-57
2022/03/28 01:56:36;;;;;;;1.20;0.32;;;;;;;-4.85;44.05;98987.69;5029920;28;20520;-57
2022/03/28 01:59:03;;;;;;;0.90;0.50;;;;;;;-4.81;43.95;98988.59;5018008;28;20045;-54
2022/03/28 02:01:29;;;;;;;0.50;0.40;;;;;;;-4.80;43.54;98988.63;5022598;28;20063;-57
2022/03/28 02:03:54;;;;;;;3.72;0.43;;;;;;;-4.84;43.43;98997.00;5031143;28;20041;-54
2022/03/28 02:06:20;;;;;;;2.55;0.57;;;;;;;-4.92;43.69;98993.50;5011212;28;20045;-56
2022/03/28 02:08:46;;;;;;;1.38;0.50;;;;;;;-5.05;43.73;98978.94;5016667;28;20049;-55
2022/03/28 02:11:12;;;;;;;1.67;0.50;;;;;;;-4.91;43.57;98999.41;5030689;28;20095;-57
2022/03/28 02:13:38;;;;;;;0.60;0.40;;;;;;;-4.91;43.43;99017.16;5028292;28;20041;-57
2022/03/28 02:16:04;;;;;;;0.50;0.28;;;;;;;-5.08;43.73;98991.56;5029658;28;20044;-57
2022/03/28 02:18:30;;;;;;;0.70;0.50;;;;;;;-5.10;44.15;98985.59;5026160;28;20037;-57
2022/03/28 02:20:56;;;;;;;1.02;0.50;;;;;;;-4.99;43.87;99004.38;5030642;28;20091;-58
2022/03/28 02:23:23;;;;;;;5.70;0.47;;;;;;;-4.92;43.78;99003.63;5030988;28;20045;-58
2022/03/28 02:25:49;;;;;;;1.80;0.68;;;;;;;-4.91;44.02;99005.34;5012759;28;20402;-59
2022/03/28 02:28:14;;;;;;;0.63;0.38;;;;;;;-4.90;43.65;98996.91;5028838;28;20138;-56
2022/03/28 02:30:40;;;;;;;0.77;0.50;;;;;;;-5.01;44.26;98987.44;5029319;28;20041;-55
2022/03/28 02:33:06;;;;;;;4.10;1.10;;;;;;;-4.96;43.79;98991.75;5029269;28;20041;-53
2022/03/28 02:35:33;;;;;;;2.17;0.55;;;;;;;-5.15;44.56;98961.88;5028568;28;20042;-57
2022/03/28 02:38:01;;;;;;;1.23;0.50;;;;;;;-4.90;44.44;98986.78;5033378;28;20524;-57
2022/03/28 02:40:28;;;;;;;1.95;0.70;;;;;;;-4.87;44.05;98989.38;5034390;28;20103;-54
2022/03/28 02:42:58;;;;;;;2.72;0.50;;;;;;;-4.91;43.78;98982.53;5034463;28;20083;-54
2022/03/28 02:45:30;;;;;;;2.75;0.47;;;;;;;-4.90;44.34;98983.38;5029819;28;20083;-58
2022/03/28 02:47:55;;;;;;;1.00;0.22;;;;;;;-4.87;44.32;98979.25;5015047;28;20125;-52
2022/03/28 02:50:21;;;;;;;1.55;0.45;;;;;;;-5.05;44.04;98943.47;5030089;28;20576;-55
2022/03/28 02:52:47;;;;;;;1.70;0.40;;;;;;;-5.02;43.78;98963.75;5034682;28;20099;-55
2022/03/28 02:55:14;;;;;;;0.82;0.50;;;;;;;-4.96;44.48;98961.31;5033063;28;20107;-56
2022/03/28 02:57:40;;;;;;;0.80;0.50;;;;;;;-4.92;44.08;98955.47;5029286;28;20037;-54
2022/03/28 03:00:08;;;;;;;3.22;1.05;;;;;;;-4.87;44.56;98966.56;5031248;28;20064;-56
2022/03/28 03:02:34;;;;;;;0.80;0.50;;;;;;;-4.92;43.91;98950.41;5033975;28;20083;-55
2022/03/28 03:05:00;;;;;;;3.42;0.65;;;;;;;-4.89;44.28;98950.47;5021820;28;20502;-50
2022/03/28 03:07:26;;;;;;;2.38;0.60;;;;;;;-4.85;44.57;98946.28;5033913;28;20509;-57
2022/03/28 03:09:53;;;;;;;1.23;0.70;;;;;;;-4.80;44.84;98950.59;5031837;28;20052;-54
2022/03/28 03:12:19;;;;;;;1.15;0.65;;;;;;;-4.77;44.30;98939.66;5033226;28;20053;-55
2022/03/28 03:14:45;;;;;;;0.68;0.40;;;;;;;-4.78;44.72;98940.50;5033055;28;20051;-57
2022/03/28 03:17:11;;;;;;;1.30;0.60;;;;;;;-4.84;43.94;98932.78;5033532;28;20433;-55
2022/03/28 03:19:39;;;;;;;0.93;0.40;;;;;;;-4.83;44.24;98932.81;5033687;28;20042;-55
2022/03/28 03:22:06;;;;;;;1.50;0.57;;;;;;;-5.06;44.67;98901.19;5033240;28;20095;-53
2022/03/28 03:24:32;;;;;;;1.00;0.45;;;;;;;-4.89;44.45;98937.78;5033433;28;20547;-60
2022/03/28 03:26:57;;;;;;;1.85;0.75;;;;;;;-4.90;44.43;98930.16;5032561;28;20124;-58
2022/03/28 03:29:24;;;;;;;5.18;0.60;;;;;;;-4.87;44.81;98932.75;5032222;28;20045;-56
2022/03/28 03:31:49;;;;;;;1.90;0.73;;;;;;;-4.79;44.58;98929.50;5033224;28;20136;-55
2022/03/28 03:34:15;;;;;;;4.18;0.98;;;;;;;-4.77;44.37;98921.91;5029537;28;20491;-58
2022/03/28 03:36:41;;;;;;;0.55;0.35;;;;;;;-4.76;44.75;98921.91;5032028;28;20083;-51
2022/03/28 03:39:06;;;;;;;1.05;0.57;;;;;;;-4.82;44.45;98921.00;5013342;28;20069;-53
2022/03/28 03:41:32;;;;;;;3.65;0.95;;;;;;;-4.78;44.90;98913.47;5028343;28;20132;-56
2022/03/28 03:43:58;;;;;;;2.35;0.70;;;;;;;-4.74;44.51;98922.81;5033292;28;20524;-58
2022/03/28 03:46:24;;;;;;;2.22;0.80;;;;;;;-4.75;44.12;98910.94;5030601;28;20033;-57
2022/03/28 03:48:49;;;;;;;3.35;1.10;;;;;;;-4.64;44.60;98907.72;5031501;28;20041;-56
2022/03/28 03:51:15;;;;;;;2.47;0.60;;;;;;;-4.60;44.53;98910.28;5031508;28;20095;-57
2022/03/28 03:53:41;;;;;;;1.67;0.93;;;;;;;-4.61;44.88;98911.16;5033630;28;20044;-55
2022/03/28 03:56:07;;;;;;;3.55;1.23;;;;;;;-4.55;44.67;98908.69;5031347;28;20048;-55
2022/03/28 03:58:32;;;;;;;4.18;0.80;;;;;;;-4.39;44.38;98915.66;5032555;28;20045;-52
2022/03/28 04:00:58;;;;;;;1.05;0.63;;;;;;;-4.30;44.16;98915.78;5030151;28;20056;-53
2022/03/28 04:03:24;;;;;;;0.40;0.25;;;;;;;-4.29;43.75;98916.59;5032586;28;20099;-58
2022/03/28 04:05:49;;;;;;;7.35;0.80;;;;;;;-4.31;44.72;98915.75;5031989;28;20091;-56
2022/03/28 04:08:15;;;;;;;1.30;0.80;;;;;;;-4.21;44.57;98914.19;5031806;28;20040;-57
2022/03/28 04:10:42;;;;;;;3.00;1.30;;;;;;;-4.18;44.13;98914.19;5027767;28;20537;-58
2022/03/28 04:13:10;;;;;;;0.95;0.28;;;;;;;-4.24;43.75;98911.63;5029538;28;20371;-52
2022/03/28 04:15:36;;;;;;;2.75;0.82;;;;;;;-4.23;44.41;98918.38;5013806;28;20040;-54
2022/03/28 04:18:02;;;;;;;1.23;0.50;;;;;;;-4.27;44.34;98910.72;5031758;28;20057;-54
2022/03/28 04:20:29;;;;;;;4.60;1.25;;;;;;;-4.11;44.45;98923.59;5030429;28;20041;-56
2022/03/28 04:22:55;;;;;;;0.85;0.52;;;;;;;-4.28;43.45;98877.72;5032537;28;20048;-54
2022/03/28 04:25:21;;;;;;;1.88;0.65;;;;;;;-4.20;43.47;98900.66;5031956;28;20532;-55
2022/03/28 04:27:47;;;;;;;4.43;0.95;;;;;;;-4.19;43.72;98902.38;5031721;28;20079;-55
2022/03/28 04:30:13;;;;;;;8.05;1.08;;;;;;;-4.15;43.47;98901.56;5030074;28;20048;-58
2022/03/28 04:32:39;;;;;;;1.85;0.85;;;;;;;-4.08;43.48;98891.47;5032355;28;20424;-56
2022/03/28 04:35:06;;;;;;;2.58;0.45;;;;;;;-4.04;43.90;98902.53;5013750;28;20039;-58
2022/03/28 04:37:33;;;;;;;2.20;0.80;;;;;;;-3.97;43.49;98911.91;5032075;28;20048;-58
2022/03/28 04:40:00;;;;;;;3.65;0.80;;;;;;;-3.80;43.07;98909.53;5029747;28;20057;-56
2022/03/28 04:42:25;;;;;;;0.55;0.28;;;;;;;-3.90;42.91;98899.31;5031625;28;20046;-59
2022/03/28 04:44:51;;;;;;;1.85;0.68;;;;;;;-3.92;43.29;98898.44;5030985;28;20148;-58
2022/03/28 04:47:17;;;;;;;0.73;0.57;;;;;;;-3.95;43.65;98887.41;5031762;28;20037;-57
2022/03/28 04:49:43;;;;;;;1.40;0.65;;;;;;;-3.92;43.69;98887.41;5032242;28;20477;-58
2022/03/28 04:52:09;;;;;;;4.75;0.80;;;;;;;-3.92;43.41;98879.81;5030724;28;20127;-57
2022/03/28 04:54:36;;;;;;;1.85;0.65;;;;;;;-3.96;43.13;98875.53;5029406;28;20042;-59
2022/03/28 04:57:04;;;;;;;2.33;0.90;;;;;;;-3.94;43.62;98878.94;5031293;28;20037;-55
2022/03/28 04:59:30;;;;;;;4.82;0.88;;;;;;;-3.79;43.56;98874.03;5030897;28;20147;-55
2022/03/28 05:01:56;;;;;;;2.40;0.73;;;;;;;-3.68;43.68;98859.75;5027534;28;20049;-57
2022/03/28 05:04:22;;;;;;;1.38;0.65;;;;;;;-3.61;43.00;98853.84;5028059;28;20034;-53
2022/03/28 05:06:47;;;;;;;0.50;0.30;;;;;;;-3.69;42.28;98849.56;5060454;28;20065;-58
2022/03/28 05:09:13;;;;;;;2.38;1.30;;;;;;;-3.86;43.30;98814.72;5031614;28;20428;-56
2022/03/28 05:11:39;;;;;;;1.73;0.70;;;;;;;-3.48;42.49;98834.50;5028734;28;20045;-62
2022/03/28 05:14:05;;;;;;;6.72;1.00;;;;;;;-3.34;42.34;98847.28;5028516;28;20548;-64
2022/03/28 05:16:31;;;;;;;3.05;0.75;;;;;;;-3.60;42.11;98814.94;5028441;28;20095;-59
2022/03/28 05:18:57;;;;;;;0.73;0.50;;;;;;;-3.61;42.47;98822.56;5029788;28;20476;-59
2022/03/28 05:21:22;;;;;;;2.90;0.88;;;;;;;-3.42;42.28;98814.22;5027646;28;20037;-62
2022/03/28 05:23:48;;;;;;;2.28;0.60;;;;;;;-3.31;41.51;98815.16;5030555;28;20568;-62
2022/03/28 05:26:14;;;;;;;0.57;0.52;;;;;;;-3.45;41.67;98793.84;5030045;28;20048;-63
2022/03/28 05:28:40;;;;;;;6.03;1.23;;;;;;;-3.31;41.92;98791.44;5028344;28;20064;-60
2022/03/28 05:31:05;;;;;;;2.67;0.80;;;;;;;-3.42;42.56;98774.44;5025962;28;20037;-60
2022/03/28 05:33:31;;;;;;;5.38;0.73;;;;;;;-3.36;41.73;98781.25;5030880;28;20544;-62
2022/03/28 05:35:57;;;;;;;1.73;0.50;;;;;;;-3.30;41.83;98766.03;5029554;28;20468;-63
2022/03/28 05:38:23;;;;;;;0.65;0.30;;;;;;;-3.24;41.62;98760.13;5030742;28;20045;-61
2022/03/28 05:40:49;;;;;;;0.52;0.30;;;;;;;-3.33;41.40;98760.91;5036572;28;20052;-60
2022/03/28 05:43:16;;;;;;;6.43;2.67;;;;;;;-3.37;41.91;98750.72;5028759;28;20394;-60
2022/03/28 05:45:41;;;;;;;4.03;0.90;;;;;;;-3.19;41.92;98753.41;5028690;28;20464;-59
2022/03/28 05:48:07;;;;;;;3.55;0.93;;;;;;;-3.15;41.07;98732.22;5030248;28;20033;-59
2022/03/28 05:50:33;;;;;;;2.65;0.90;;;;;;;-3.12;41.17;98742.41;5032438;28;20041;-61
2022/03/28 05:52:59;;;;;;;3.72;0.63;;;;;;;-3.07;41.19;98743.25;5038899;28;20033;-61
2022/03/28 05:55:25;;;;;;;1.75;0.73;;;;;;;-3.16;41.16;98741.53;5030504;28;20053;-64
2022/03/28 05:57:50;;;;;;;0.88;0.52;;;;;;;-3.13;40.86;98727.97;5020575;28;20111;-61
2022/03/28 06:00:16;;;;;;;2.13;0.85;;;;;;;-3.19;40.96;98708.47;5029351;28;20120;-61
2022/03/28 06:02:42;;;;;;;3.17;0.40;;;;;;;-2.97;40.67;98723.81;5024027;28;20129;-61
2022/03/28 06:05:10;;;;;;;4.30;1.25;;;;;;;-2.87;40.88;98711.13;5038235;28;20060;-54
2022/03/28 06:07:35;;;;;;;6.72;0.75;;;;;;;-2.70;40.15;98708.66;5039942;28;20590;-58
2022/03/28 06:10:02;;;;;;;2.13;0.88;;;;;;;-2.55;40.54;98698.50;5034585;28;20061;-59
2022/03/28 06:12:29;;;;;;;1.23;0.43;;;;;;;-2.79;39.36;98656.09;5022698;28;20513;-61
2022/03/28 06:14:54;;;;;;;4.28;0.75;;;;;;;-2.63;39.24;98672.22;5030195;28;20051;-62
2022/03/28 06:17:21;;;;;;;1.95;0.73;;;;;;;-2.61;39.60;98673.91;5026354;28;20042;-61
2022/03/28 06:19:47;;;;;;;1.73;0.80;;;;;;;-2.66;39.02;98670.50;5027067;28;20518;-62
2022/03/28 06:22:13;;;;;;;0.82;0.60;;;;;;;-2.68;39.08;98654.41;5027602;28;20041;-51
2022/03/28 06:24:39;;;;;;;4.28;1.05;;;;;;;-2.63;39.06;98629.81;5027995;28;20497;-50
2022/03/28 06:27:04;;;;;;;4.93;1.95;;;;;;;-2.46;39.22;98622.19;5027788;28;20133;-50
2022/03/28 06:29:30;;;;;;;3.50;1.48;;;;;;;-2.24;38.94;98630.66;5006650;28;20072;-49
2022/03/28 06:31:56;;;;;;;7.13;2.30;;;;;;;-2.05;38.83;98637.47;5027304;28;20044;-50
2022/03/28 06:34:22;;;;;;;3.28;1.10;;;;;;;-2.00;38.65;98628.13;5030606;28;20041;-47
2022/03/28 06:36:47;;;;;;;2.10;0.98;;;;;;;-1.97;38.02;98628.09;5029046;28;20047;-49
2022/03/28 06:39:14;;;;;;;5.78;0.95;;;;;;;-1.94;38.40;98620.47;5028659;28;20513;-50
2022/03/28 06:41:40;;;;;;;3.95;1.20;;;;;;;-1.87;38.30;98609.41;5030554;28;20057;-49
2022/03/28 06:44:08;;;;;;;5.60;1.27;;;;;;;-1.57;38.12;98607.63;5030213;28;20043;-49
2022/03/28 06:46:36;;;;;;;6.25;1.42;;;;;;;-1.29;37.88;98593.91;5027610;28;20060;-47
2022/03/28 06:49:02;;;;;;;2.00;0.60;;;;;;;-1.45;37.37;98600.78;5028366;28;20052;-47
2022/03/28 06:51:28;;;;;;;4.07;0.63;;;;;;;-1.65;37.57;98573.69;5030389;28;20378;-50
2022/03/28 06:53:54;;;;;;;3.47;2.83;;;;;;;-1.52;37.73;98572.78;5029017;28;20087;-46
2022/03/28 06:56:20;;;;;;;8.25;0.98;;;;;;;-1.62;37.12;98568.59;5027837;28;20045;-51
2022/03/28 06:58:45;;;;;;;0.90;0.40;;;;;;;-1.84;37.26;98567.81;5014814;28;20132;-50
2022/03/28 07:01:12;;;;;;;4.47;1.30;;;;;;;-1.76;37.84;98559.28;5028487;28;20053;-48
2022/03/28 07:03:38;;;;;;;1.38;0.63;;;;;;;-1.83;37.02;98552.50;5030363;28;20091;-47
2022/03/28 07:06:05;;;;;;;3.67;1.27;;;;;;;-1.80;37.46;98538.94;5028600;28;20087;-50
2022/03/28 07:08:30;;;;;;;4.78;1.02;;;;;;;-1.80;37.11;98510.91;5018232;28;20049;-47
2022/03/28 07:10:58;;;;;;;8.30;1.30;;;;;;;-1.64;37.32;98534.63;5025285;28;20052;-48
2022/03/28 07:13:23;;;;;;;3.00;0.88;;;;;;;-1.53;36.88;98520.97;5011489;28;20047;-51
2022/03/28 07:15:49;;;;;;;1.40;0.75;;;;;;;-1.64;36.73;98492.16;5029816;28;20128;-49
2022/03/28 07:18:15;;;;;;;5.85;0.70;;;;;;;-1.45;36.35;98500.53;5028330;28;20068;-49
2022/03/28 07:20:43;;;;;;;1.92;0.95;;;;;;;-1.50;36.28;98492.06;5029881;28;20073;-48
2022/03/28 07:23:09;;;;;;;2.28;0.70;;;;;;;-1.59;36.65;98482.78;5030382;28;20429;-49
2022/03/28 07:25:36;;;;;;;3.47;0.85;;;;;;;-1.64;36.68;98473.47;5033289;28;20570;-49
2022/03/28 07:28:09;;;;;;;2.85;0.80;;;;;;;-1.66;36.64;98458.19;5016028;28;20046;-48
2022/03/28 07:30:35;;;;;;;0.93;0.47;;;;;;;-1.62;36.52;98451.38;5011817;28;20038;-51
2022/03/28 07:33:02;;;;;;;1.08;1.05;;;;;;;-1.65;36.62;98419.13;5031341;28;20414;-54
2022/03/28 07:35:29;;;;;;;4.78;0.98;;;;;;;-1.55;36.60;98442.84;5031882;28;20037;-51
2022/03/28 07:37:55;;;;;;;1.85;0.77;;;;;;;-1.82;37.81;98439.59;5052779;28;20042;-48
2022/03/28 07:40:21;;;;;;;5.07;0.60;;;;;;;-1.86;38.42;98432.81;5013569;28;20041;-50
2022/03/28 07:42:47;;;;;;;3.58;1.33;;;;;;;-2.02;38.76;98430.34;5041145;28;20046;-48
2022/03/28 07:45:14;;;;;;;3.25;0.55;;;;;;;-2.07;39.48;98414.25;5013939;28;20529;-47
2022/03/28 07:47:41;;;;;;;1.23;0.60;;;;;;;-1.88;39.58;98403.09;5028217;28;20033;-48
2022/03/28 07:50:08;;;;;;;0.80;0.50;;;;;;;-1.83;39.97;98429.41;5013408;28;20065;-52
2022/03/28 07:52:34;;;;;;;1.00;0.32;;;;;;;-2.14;41.04;98393.06;5027058;28;20645;-48
2022/03/28 07:55:01;;;;;;;2.35;0.98;;;;;;;-2.33;41.20;98366.00;5031737;28;20573;-53
2022/03/28 07:57:27;;;;;;;2.17;0.60;;;;;;;-2.09;40.64;98393.06;5032222;28;20107;-52
2022/03/28 07:59:53;;;;;;;0.38;0.38;;;;;;;-2.10;41.26;98381.19;5032833;28;20540;-50
2022/03/28 08:02:19;;;;;;;5.70;0.88;;;;;;;-2.10;41.46;98364.22;5022605;28;20057;-50
2022/03/28 08:04:45;;;;;;;1.42;0.70;;;;;;;-1.99;41.36;98367.50;5031406;28;20038;-49
2022/03/28 08:07:12;;;;;;;1.17;0.50;;;;;;;-1.90;41.39;98354.75;5025745;28;20045;-49
2022/03/28 08:09:39;;;;;;;1.48;0.60;;;;;;;-1.88;41.94;98347.09;5028393;28;20470;-49
2022/03/28 08:12:05;;;;;;;2.25;0.88;;;;;;;-2.07;43.01;98365.88;5022072;28;20041;-50
2022/03/28 08:14:31;;;;;;;1.52;0.40;;;;;;;-2.20;44.26;98343.03;5032925;28;20037;-50
2022/03/28 08:16:57;;;;;;;3.30;0.40;;;;;;;-2.25;44.99;98328.66;5025816;28;20088;-53
2022/03/28 08:19:23;;;;;;;1.75;0.50;;;;;;;-2.41;46.06;98350.78;5011244;28;20101;-49
2022/03/28 08:21:49;;;;;;;0.95;0.60;;;;;;;-2.60;46.90;98276.22;5018985;28;20076;-49
2022/03/28 08:24:15;;;;;;;2.08;0.70;;;;;;;-2.47;47.27;98297.38;5032211;28;20079;-52
2022/03/28 08:26:41;;;;;;;0.47;0.30;;;;;;;-2.52;47.62;98288.09;5032312;28;20099;-52
2022/03/28 08:29:07;;;;;;;1.35;0.63;;;;;;;-2.53;47.75;98258.41;5015283;28;20061;-51
2022/03/28 08:31:33;;;;;;;37.03;1.30;;;;;;;-2.30;47.63;98259.09;5016621;28;20053;-48
2022/03/28 08:33:59;;;;;;;1.65;0.20;;;;;;;-2.18;47.16;98239.50;5031259;28;20037;-48
2022/03/28 08:36:25;;;;;;;2.03;0.70;;;;;;;-2.06;47.25;98250.47;5023432;28;20065;-47
2022/03/28 08:38:51;;;;;;;1.20;0.50;;;;;;;-2.13;48.36;98236.94;5011378;28;20509;-50
2022/03/28 08:41:18;;;;;;;1.20;0.63;;;;;;;-2.32;50.56;98231.13;5014796;28;20042;-53
2022/03/28 08:43:45;;;;;;;2.00;0.55;;;;;;;-2.49;52.70;98222.75;5032554;28;20038;-49
2022/03/28 08:46:11;;;;;;;0.63;0.47;;;;;;;-2.60;54.55;98215.19;5020602;28;20041;-52
2022/03/28 08:48:41;;;;;;;3.25;0.75;;;;;;;-2.60;54.86;98201.63;5028100;28;20037;-49
2022/03/28 08:51:11;;;;;;;1.40;0.52;;;;;;;-2.64;56.40;98185.53;5031426;28;20034;-49
2022/03/28 08:53:38;;;;;;;3.63;0.80;;;;;;;-2.61;57.31;98172.78;5027594;28;20092;-50
2022/03/28 08:56:04;;;;;;;0.70;0.50;;;;;;;-2.75;57.65;98133.91;5013081;28;20041;-49
2022/03/28 08:58:30;;;;;;;0.82;0.60;;;;;;;-2.53;58.41;98165.13;5006771;28;20038;-48
2022/03/28 09:00:55;;;;;;;7.38;1.15;;;;;;;-2.65;59.71;98148.25;5012079;28;20466;-49
2022/03/28 09:03:50;;;;;;;5.40;1.02;;;;;;;-2.53;59.70;98139.69;5011171;28;20037;-52
2022/03/28 09:06:36;;;;;;;1.25;0.55;;;;;;;-2.57;61.99;98155.84;5027703;28;20042;-51
2022/03/28 09:09:16;;;;;;;2.38;0.73;;;;;;;-2.55;63.14;98151.56;5058239;28;20575;-49
2022/03/28 09:11:45;;;;;;;5.47;1.60;;;;;;;-2.60;63.26;98125.31;5031709;28;20095;-51
2022/03/28 09:14:28;;;;;;;2.30;1.00;;;;;;;-2.51;65.80;98117.59;5030319;28;20045;-50
2022/03/28 09:17:15;;;;;;;1.00;0.55;;;;;;;-2.65;66.18;98109.25;5024172;28;20124;-50
2022/03/28 09:19:55;;;;;;;1.95;0.90;;;;;;;-2.60;68.39;98116.00;5031132;28;20047;-47
2022/03/28 09:22:32;;;;;;;2.88;0.93;;;;;;;-2.49;68.90;98069.25;5031353;28;20095;-49
2022/03/28 09:25:00;;;;;;;4.53;0.75;;;;;;;-2.06;67.52;98113.84;5030992;28;20065;-49
2022/03/28 09:27:31;;;;;;;1.10;0.80;;;;;;;-2.20;66.23;98093.59;5023846;28;20041;-48
2022/03/28 09:30:11;;;;;;;5.95;0.95;;;;;;;-2.34;67.20;98097.13;5011247;28;20084;-50
2022/03/28 09:32:54;;;;;;;0.70;0.70;;;;;;;-2.49;70.80;98077.75;5015772;28;20061;-52
2022/03/28 09:35:24;;;;;;;1.17;0.70;;;;;;;-2.64;74.58;98073.63;5031657;28;20045;-50
2022/03/28 09:37:57;;;;;;;0.98;0.60;;;;;;;-2.56;75.20;98063.38;5020558;28;20069;-49
2022/03/28 09:40:25;;;;;;;3.75;0.93;;;;;;;-2.53;75.73;98050.66;5010561;28;20472;-50
2022/03/28 09:42:51;;;;;;;3.08;1.10;;;;;;;-2.35;76.15;98040.28;5043239;28;20048;-48
2022/03/28 09:45:22;;;;;;;1.70;0.85;;;;;;;-2.14;75.88;98034.16;5011294;28;20045;-47
2022/03/28 09:48:07;;;;;;;2.28;1.08;;;;;;;-2.29;73.07;98022.41;5012544;28;20124;-47
2022/03/28 09:50:38;;;;;;;4.88;1.30;;;;;;;-2.15;73.32;98017.22;5011228;28;20041;-47
2022/03/28 09:53:25;;;;;;;3.15;1.05;;;;;;;-2.15;72.45;98018.03;5011140;28;20053;-49
2022/03/28 09:55:55;;;;;;;3.03;1.40;;;;;;;-2.22;73.02;98011.34;5026547;28;20125;-50
2022/03/28 09:58:46;;;;;;;3.67;1.45;;;;;;;-2.13;73.76;97995.09;5023454;28;20095;-51
2022/03/28 10:01:22;;;;;;;2.28;1.17;;;;;;;-2.20;72.56;97984.16;5030783;28;20073;-47
2022/03/28 10:03:50;;;;;;;1.58;0.55;;;;;;;-2.16;72.58;97998.53;5014865;28;20077;-50
2022/03/28 10:06:17;;;;;;;3.78;1.70;;;;;;;-2.17;72.23;97988.38;5013082;28;20033;-47
2022/03/28 10:08:43;;;;;;;2.55;1.10;;;;;;;-2.08;72.51;97980.63;5029779;28;20331;-49
2022/03/28 10:11:10;;;;;;;3.80;1.20;;;;;;;-1.99;72.15;97975.41;5030709;28;20055;-51
2022/03/28 10:13:37;;;;;;;1.58;0.85;;;;;;;-1.87;71.85;97970.19;5060236;28;20146;-48
2022/03/28 10:16:04;;;;;;;3.03;1.00;;;;;;;-2.05;72.78;97972.13;5011170;28;20046;-49
2022/03/28 10:18:32;;;;;;;4.72;1.35;;;;;;;-2.08;73.27;97964.50;5032851;28;20037;-49
2022/03/28 10:21:01;;;;;;;1.40;1.00;;;;;;;-2.10;72.72;97953.53;5011691;28;20135;-48
2022/03/28 10:23:33;;;;;;;;;;;;;;;-2.13;73.82;97945.06;5008255;28;20250;-49
2022/03/28 10:25:59;;;;;;;3.00;1.27;;;;;;;-2.36;73.82;97928.38;5009712;28;20313;-49
2022/03/28 10:28:25;;;;;;;2.97;1.17;;;;;;;-2.24;73.97;97934.16;5042590;28;20045;-46
2022/03/28 10:31:08;;;;;;;4.03;0.90;;;;;;;-2.23;74.28;97946.03;5026848;28;20053;-47
2022/03/28 10:33:34;;;;;;;1.15;0.60;;;;;;;-2.22;74.92;97922.25;5018671;28;20402;-46
2022/03/28 10:36:19;;;;;;;4.78;1.35;;;;;;;-2.15;75.82;97911.13;5029469;28;20421;-47
2022/03/28 10:38:45;;;;;;;2.92;1.17;;;;;;;-1.94;76.25;97907.50;5012699;28;20044;-49
2022/03/28 10:41:16;;;;;;;2.05;1.17;;;;;;;-1.85;75.60;97911.59;5015170;28;20424;-48
2022/03/28 10:43:42;;;;;;;6.93;1.30;;;;;;;-1.90;74.88;97891.31;5030403;28;20041;-51
2022/03/28 10:46:10;;;;;;;4.60;1.40;;;;;;;-1.68;75.51;97886.75;5029426;28;20079;-50
2022/03/28 10:48:37;;;;;;;4.95;1.30;;;;;;;-1.61;74.77;97877.28;5022781;28;20041;-51
2022/03/28 10:51:06;;;;;;;3.22;1.67;;;;;;;-1.62;74.46;97873.91;5010750;28;20050;-51
2022/03/28 10:53:39;;;;;;;1.45;0.93;;;;;;;-1.58;73.76;97864.53;5028703;28;20509;-52
2022/03/28 10:56:36;;;;;;;4.18;1.95;;;;;;;-1.64;73.83;97855.28;5029103;28;20045;-48
2022/03/28 10:59:07;;;;;;;3.50;1.00;;;;;;;-1.67;73.25;97865.47;5059144;28;20044;-51
2022/03/28 11:01:38;;;;;;;2.45;1.42;;;;;;;-1.71;73.64;97846.88;5033436;28;20127;-49
2022/03/28 11:04:15;;;;;;;6.80;1.45;;;;;;;-1.51;73.56;97848.25;5025120;28;20045;-46
2022/03/28 11:07:06;;;;;;;4.35;1.33;;;;;;;-1.49;73.25;97846.53;5034095;28;20037;-52
2022/03/28 11:09:48;;;;;;;4.22;1.40;;;;;;;-1.61;73.63;97849.28;5033105;28;20053;-48
2022/03/28 11:12:18;;;;;;;2.60;1.33;;;;;;;-1.72;73.46;97841.78;5033171;28;20537;-48
2022/03/28 11:14:50;;;;;;;2.50;0.70;;;;;;;-1.62;74.19;97817.84;5029725;28;20113;-49
2022/03/28 11:17:29;;;;;;;2.17;1.15;;;;;;;-1.67;74.57;97819.63;5032000;28;20051;-52
2022/03/28 11:20:18;;;;;;;1.92;0.82;;;;;;;-1.67;73.59;97796.72;5020680;28;20395;-50
2022/03/28 11:22:49;;;;;;;2.90;1.13;;;;;;;-1.39;73.03;97794.56;5028837;28;20038;-48
2022/03/28 11:25:41;;;;;;;2.92;1.08;;;;;;;-1.38;71.96;97768.22;5031221;28;20033;-48
2022/03/28 11:28:09;;;;;;;1.27;0.70;;;;;;;-1.33;71.54;97751.97;5030644;28;20136;-48
2022/03/28 11:30:45;;;;;;;3.50;0.80;;;;;;;-1.35;71.46;97725.66;5033293;28;20424;-50
2022/03/28 11:33:13;;;;;;;2.25;0.98;;;;;;;-1.33;72.25;97735.84;5031950;28;20041;-53
2022/03/28 11:35:46;;;;;;;2.50;1.20;;;;;;;-1.38;71.98;97718.09;5013112;28;20037;-53
2022/03/28 11:38:11;;;;;;;1.85;1.13;;;;;;;-1.34;72.15;97711.22;5013042;28;20045;-48
2022/03/28 11:40:41;;;;;;;3.20;1.05;;;;;;;-1.35;72.46;97709.53;5012262;28;20399;-51